createdAt,value
2018-06-03T00:00:23.670Z,14.47
2018-06-03T00:01:29.030Z,14.37
2018-06-03T00:02:34.673Z,14.34
2018-06-03T00:03:42.219Z,14.38
2018-06-03T00:04:47.368Z,14.39
2018-06-03T00:05:51.878Z,14.44
2018-06-03T00:06:56.358Z,14.41
2018-06-03T00:08:00.878Z,14.49
2018-06-03T00:09:06.424Z,14.46
2018-06-03T00:10:11.320Z,14.48
2018-06-03T00:11:15.802Z,14.53
2018-06-03T00:12:20.382Z,14.59
2018-06-03T00:13:25.137Z,14.59
2018-06-03T00:14:29.731Z,14.63
2018-06-03T00:15:34.302Z,14.69
2018-06-03T00:16:39.313Z,14.67
2018-06-03T00:17:43.946Z,14.58
2018-06-03T00:18:48.469Z,14.61
2018-06-03T00:19:52.951Z,14.59
2018-06-03T00:21:02.850Z,14.65
2018-06-03T00:22:08.827Z,14.62
2018-06-03T00:23:13.806Z,14.59
2018-06-03T00:24:18.568Z,14.62
2018-06-03T00:25:23.497Z,14.57
2018-06-03T00:26:27.975Z,14.48
2018-06-03T00:27:32.674Z,14.46
2018-06-03T00:28:37.330Z,14.47
2018-06-03T00:29:42.137Z,14.52
2018-06-03T00:30:46.646Z,14.51
2018-06-03T00:31:51.136Z,14.55
2018-06-03T00:32:55.642Z,14.61
2018-06-03T00:34:00.150Z,14.57
2018-06-03T00:35:04.697Z,14.53
2018-06-03T00:36:14.956Z,14.46
2018-06-03T00:37:19.488Z,14.51
2018-06-03T00:38:23.989Z,14.56
2018-06-03T00:39:28.529Z,14.58
2018-06-03T00:40:33.033Z,14.51
2018-06-03T00:41:37.495Z,14.49
2018-06-03T00:42:42.519Z,14.47
2018-06-03T00:43:47.208Z,14.53
2018-06-03T00:44:51.842Z,14.55
2018-06-03T00:45:56.482Z,14.47
2018-06-03T00:47:01.127Z,14.45
2018-06-03T00:48:05.739Z,14.46
2018-06-03T00:49:10.823Z,14.48
2018-06-03T00:50:16.162Z,14.39
2018-06-03T00:51:20.809Z,14.37
2018-06-03T00:52:25.451Z,14.37
2018-06-03T00:53:30.080Z,14.33
2018-06-03T00:54:34.711Z,14.28
2018-06-03T00:55:39.737Z,14.20
2018-06-03T00:57:18.700Z,14.20
2018-06-03T00:58:23.321Z,14.20
2018-06-03T00:59:28.056Z,14.20
2018-06-03T01:00:33.410Z,14.22
2018-06-03T01:01:38.082Z,14.27
2018-06-03T01:02:43.115Z,14.23
2018-06-03T01:03:47.729Z,14.23
2018-06-03T01:04:52.338Z,14.20
2018-06-03T01:05:57.016Z,14.23
2018-06-03T01:07:01.667Z,14.22
2018-06-03T01:08:06.333Z,14.22
2018-06-03T01:09:11.716Z,14.18
2018-06-03T01:10:16.469Z,14.13
2018-06-03T01:11:21.105Z,14.13
2018-06-03T01:12:25.711Z,14.15
2018-06-03T01:13:30.336Z,14.09
2018-06-03T01:14:35.053Z,13.99
2018-06-03T01:15:40.167Z,13.93
2018-06-03T01:16:44.894Z,14.00
2018-06-03T01:17:49.509Z,14.10
2018-06-03T01:18:54.198Z,14.16
2018-06-03T01:19:58.849Z,14.10
2018-06-03T01:21:03.504Z,14.10
2018-06-03T01:22:08.902Z,14.17
2018-06-03T01:23:13.683Z,14.16
2018-06-03T01:24:18.366Z,14.08
2018-06-03T01:25:24.047Z,14.04
2018-06-03T01:26:28.697Z,14.13
2018-06-03T01:27:33.386Z,14.07
2018-06-03T01:28:38.419Z,14.11
2018-06-03T01:29:43.047Z,14.13
2018-06-03T01:30:47.717Z,14.16
2018-06-03T01:31:52.296Z,14.14
2018-06-03T01:32:56.930Z,14.01
2018-06-03T01:34:01.530Z,13.95
2018-06-03T01:35:06.567Z,14.06
2018-06-03T01:36:11.239Z,14.03
2018-06-03T01:37:15.836Z,14.09
2018-06-03T01:38:20.435Z,14.22
2018-06-03T01:39:24.978Z,14.17
2018-06-03T01:40:29.530Z,14.18
2018-06-03T01:41:34.435Z,14.07
2018-06-03T01:42:38.963Z,14.08
2018-06-03T01:43:43.619Z,14.10
2018-06-03T01:44:48.311Z,14.15
2018-06-03T01:45:52.976Z,14.07
2018-06-03T01:46:57.686Z,14.02
2018-06-03T01:48:02.955Z,14.00
2018-06-03T01:49:07.643Z,14.03
2018-06-03T01:50:12.292Z,14.09
2018-06-03T01:51:16.986Z,14.06
2018-06-03T01:52:21.700Z,14.16
2018-06-03T01:53:26.363Z,14.16
2018-06-03T01:54:31.393Z,14.20
2018-06-03T01:55:36.047Z,14.19
2018-06-03T01:56:40.727Z,14.17
2018-06-03T01:57:45.382Z,14.13
2018-06-03T01:58:50.150Z,14.22
2018-06-03T01:59:54.842Z,14.22
2018-06-03T02:00:59.896Z,14.14
2018-06-03T02:02:04.587Z,14.15
2018-06-03T02:03:09.284Z,14.10
2018-06-03T02:04:13.965Z,13.95
2018-06-03T02:05:18.647Z,13.95
2018-06-03T02:06:23.376Z,13.93
2018-06-03T02:07:28.602Z,13.87
2018-06-03T02:08:33.281Z,13.89
2018-06-03T02:09:37.988Z,13.91
2018-06-03T02:10:42.717Z,13.84
2018-06-03T02:11:47.534Z,13.89
2018-06-03T02:12:52.899Z,13.94
2018-06-03T02:13:57.823Z,14.00
2018-06-03T02:15:02.377Z,14.09
2018-06-03T02:16:06.988Z,14.04
2018-06-03T02:17:11.525Z,14.05
2018-06-03T02:18:16.065Z,14.04
2018-06-03T02:19:20.631Z,13.96
2018-06-03T02:20:25.712Z,13.94
2018-06-03T02:21:30.261Z,14.00
2018-06-03T02:22:34.796Z,13.86
2018-06-03T02:23:39.399Z,13.87
2018-06-03T02:24:44.004Z,13.95
2018-06-03T02:25:48.536Z,13.94
2018-06-03T02:26:53.652Z,13.92
2018-06-03T02:27:58.227Z,13.91
2018-06-03T02:29:02.783Z,13.93
2018-06-03T02:30:07.346Z,13.98
2018-06-03T02:31:11.956Z,13.88
2018-06-03T02:32:16.563Z,13.74
2018-06-03T02:33:21.518Z,13.80
2018-06-03T02:34:26.059Z,13.85
2018-06-03T02:35:30.695Z,13.75
2018-06-03T02:36:35.262Z,13.76
2018-06-03T02:37:39.845Z,13.79
2018-06-03T02:38:44.421Z,13.78
2018-06-03T02:39:49.345Z,13.79
2018-06-03T02:40:53.928Z,13.70
2018-06-03T02:41:58.507Z,13.74
2018-06-03T02:43:03.088Z,13.76
2018-06-03T02:44:07.627Z,13.74
2018-06-03T02:45:12.285Z,13.76
2018-06-03T02:46:17.179Z,13.77
2018-06-03T02:47:21.707Z,13.72
2018-06-03T02:48:26.351Z,13.66
2018-06-03T02:49:30.913Z,13.69
2018-06-03T02:50:35.528Z,13.79
2018-06-03T02:51:40.067Z,13.82
2018-06-03T02:52:45.117Z,13.78
2018-06-03T02:53:49.672Z,13.73
2018-06-03T02:54:54.329Z,13.73
2018-06-03T02:55:58.859Z,13.76
2018-06-03T02:57:03.454Z,13.83
2018-06-03T02:58:07.996Z,13.80
2018-06-03T02:59:12.928Z,13.70
2018-06-03T03:00:17.463Z,13.73
2018-06-03T03:01:22.032Z,13.66
2018-06-03T03:02:26.675Z,13.68
2018-06-03T03:03:31.269Z,13.68
2018-06-03T03:04:35.828Z,13.70
2018-06-03T03:05:40.816Z,13.65
2018-06-03T03:06:45.382Z,13.72
2018-06-03T03:07:50.772Z,13.67
2018-06-03T03:08:55.359Z,13.61
2018-06-03T03:09:59.926Z,13.67
2018-06-03T03:11:04.543Z,13.70
2018-06-03T03:12:09.538Z,13.72
2018-06-03T03:13:14.091Z,13.74
2018-06-03T03:14:18.603Z,13.73
2018-06-03T03:15:23.178Z,13.67
2018-06-03T03:16:27.720Z,13.67
2018-06-03T03:17:32.293Z,13.67
2018-06-03T03:18:37.174Z,13.76
2018-06-03T03:19:41.745Z,13.70
2018-06-03T03:20:47.006Z,13.66
2018-06-03T03:21:51.542Z,13.69
2018-06-03T03:22:56.103Z,13.69
2018-06-03T03:24:00.636Z,13.69
2018-06-03T03:25:05.736Z,13.69
2018-06-03T03:26:10.321Z,13.73
2018-06-03T03:27:14.865Z,13.72
2018-06-03T03:28:19.468Z,13.72
2018-06-03T03:29:24.046Z,13.76
2018-06-03T03:30:28.628Z,13.59
2018-06-03T03:31:33.594Z,13.37
2018-06-03T03:32:38.225Z,13.37
2018-06-03T03:33:42.754Z,13.32
2018-06-03T03:34:47.282Z,13.34
2018-06-03T03:35:51.876Z,13.44
2018-06-03T03:36:56.447Z,13.52
2018-06-03T03:38:01.502Z,13.56
2018-06-03T03:39:06.802Z,13.57
2018-06-03T03:40:11.349Z,13.67
2018-06-03T03:41:15.945Z,13.74
2018-06-03T03:42:20.650Z,13.85
2018-06-03T03:43:25.267Z,13.78
2018-06-03T03:44:30.170Z,13.79
2018-06-03T03:45:34.723Z,13.81
2018-06-03T03:46:39.236Z,13.81
2018-06-03T03:47:43.805Z,13.78
2018-06-03T03:48:48.403Z,13.89
2018-06-03T03:49:52.973Z,13.74
2018-06-03T03:50:58.045Z,13.67
2018-06-03T03:52:02.639Z,13.67
2018-06-03T03:53:07.185Z,13.67
2018-06-03T03:54:11.742Z,13.75
2018-06-03T03:55:16.286Z,13.78
2018-06-03T03:56:20.841Z,13.84
2018-06-03T03:57:25.751Z,13.89
2018-06-03T03:58:30.328Z,13.71
2018-06-03T03:59:34.929Z,13.64
2018-06-03T04:00:39.478Z,13.63
2018-06-03T04:01:44.014Z,13.67
2018-06-03T04:02:48.615Z,13.76
2018-06-03T04:03:53.618Z,13.76
2018-06-03T04:04:58.179Z,13.80
2018-06-03T04:06:02.719Z,13.86
2018-06-03T04:07:07.317Z,13.83
2018-06-03T04:08:11.864Z,13.77
2018-06-03T04:09:16.457Z,13.84
2018-06-03T04:10:21.344Z,13.91
2018-06-03T04:11:25.909Z,13.79
2018-06-03T04:12:30.457Z,13.75
2018-06-03T04:13:35.033Z,13.83
2018-06-03T04:14:40.437Z,13.88
2018-06-03T04:15:44.959Z,13.93
2018-06-03T04:16:50.091Z,13.96
2018-06-03T04:17:54.662Z,13.89
2018-06-03T04:18:59.205Z,13.90
2018-06-03T04:20:03.767Z,13.93
2018-06-03T04:21:08.282Z,13.99
2018-06-03T04:22:12.855Z,14.01
2018-06-03T04:23:17.948Z,13.96
2018-06-03T04:24:22.658Z,14.04
2018-06-03T04:25:27.395Z,13.99
2018-06-03T04:26:32.099Z,13.88
2018-06-03T04:27:36.823Z,13.90
2018-06-03T04:28:41.465Z,13.80
2018-06-03T04:29:46.730Z,13.59
2018-06-03T04:30:51.423Z,13.66
2018-06-03T04:31:56.108Z,13.72
2018-06-03T04:33:00.819Z,13.85
2018-06-03T04:34:05.512Z,13.91
2018-06-03T04:35:10.239Z,13.89
2018-06-03T04:36:15.139Z,13.94
2018-06-03T04:37:19.773Z,13.95
2018-06-03T04:38:24.377Z,13.80
2018-06-03T04:39:28.942Z,13.72
2018-06-03T04:40:33.582Z,13.79
2018-06-03T04:41:38.190Z,13.84
2018-06-03T04:42:43.957Z,13.97
2018-06-03T04:43:48.594Z,14.09
2018-06-03T04:44:53.255Z,13.86
2018-06-03T04:45:57.936Z,13.89
2018-06-03T04:47:02.530Z,13.87
2018-06-03T04:48:07.235Z,13.81
2018-06-03T04:49:12.150Z,13.60
2018-06-03T04:50:16.753Z,13.52
2018-06-03T04:51:21.300Z,13.50
2018-06-03T04:52:25.861Z,13.64
2018-06-03T04:53:30.414Z,13.63
2018-06-03T04:54:34.967Z,13.62
2018-06-03T04:55:39.851Z,13.78
2018-06-03T04:56:44.382Z,13.94
2018-06-03T04:57:48.906Z,14.03
2018-06-03T04:58:53.471Z,13.89
2018-06-03T04:59:58.043Z,13.86
2018-06-03T05:01:02.630Z,13.90
2018-06-03T05:02:07.573Z,14.02
2018-06-03T05:03:12.123Z,13.99
2018-06-03T05:04:16.667Z,13.86
2018-06-03T05:05:21.232Z,13.79
2018-06-03T05:06:25.816Z,13.76
2018-06-03T05:07:30.388Z,13.80
2018-06-03T05:08:35.395Z,13.74
2018-06-03T05:09:40.103Z,13.56
2018-06-03T05:10:45.307Z,13.46
2018-06-03T05:11:49.953Z,13.42
2018-06-03T05:12:54.581Z,13.42
2018-06-03T05:13:59.255Z,13.29
2018-06-03T05:15:04.219Z,13.24
2018-06-03T05:16:08.868Z,13.18
2018-06-03T05:17:13.560Z,13.24
2018-06-03T05:18:18.269Z,13.31
2018-06-03T05:19:22.969Z,13.36
2018-06-03T05:20:27.548Z,13.46
2018-06-03T05:21:32.649Z,13.73
2018-06-03T05:22:37.205Z,13.94
2018-06-03T05:23:41.938Z,14.14
2018-06-03T05:24:46.497Z,14.30
2018-06-03T05:25:51.063Z,14.43
2018-06-03T05:26:55.647Z,14.45
2018-06-03T05:28:01.354Z,14.31
2018-06-03T05:29:05.908Z,14.27
2018-06-03T05:30:10.442Z,14.29
2018-06-03T05:31:14.986Z,14.30
2018-06-03T05:32:19.584Z,14.34
2018-06-03T05:33:24.479Z,14.47
2018-06-03T05:34:29.459Z,14.57
2018-06-03T05:35:34.023Z,14.46
2018-06-03T05:36:38.590Z,14.47
2018-06-03T05:37:43.117Z,14.59
2018-06-03T05:38:47.713Z,14.54
2018-06-03T05:39:52.361Z,14.52
2018-06-03T05:40:57.350Z,14.62
2018-06-03T05:42:01.931Z,14.72
2018-06-03T05:43:06.658Z,14.77
2018-06-03T05:44:11.352Z,14.89
2018-06-03T05:45:16.021Z,15.01
2018-06-03T05:46:20.669Z,15.03
2018-06-03T05:47:25.772Z,14.78
2018-06-03T05:48:30.433Z,14.60
2018-06-03T05:49:35.163Z,14.45
2018-06-03T05:50:39.844Z,14.21
2018-06-03T05:51:44.489Z,14.25
2018-06-03T05:52:49.174Z,14.33
2018-06-03T05:53:54.248Z,14.47
2018-06-03T05:54:59.004Z,14.46
2018-06-03T05:56:03.747Z,14.50
2018-06-03T05:57:08.534Z,14.61
2018-06-03T05:58:13.239Z,14.34
2018-06-03T05:59:17.922Z,14.20
2018-06-03T06:00:22.961Z,14.18
2018-06-03T06:01:27.660Z,14.24
2018-06-03T06:02:32.410Z,14.43
2018-06-03T06:03:37.122Z,14.31
2018-06-03T06:04:41.841Z,14.16
2018-06-03T06:05:46.542Z,14.05
2018-06-03T06:06:51.669Z,14.03
2018-06-03T06:07:56.596Z,14.08
2018-06-03T06:09:01.363Z,14.08
2018-06-03T06:10:06.189Z,14.04
2018-06-03T06:11:10.855Z,14.05
2018-06-03T06:12:15.548Z,14.08
2018-06-03T06:13:20.647Z,14.20
2018-06-03T06:14:26.270Z,14.16
2018-06-03T06:15:30.832Z,14.17
2018-06-03T06:16:35.412Z,14.26
2018-06-03T06:17:40.713Z,14.39
2018-06-03T06:18:45.319Z,14.61
2018-06-03T06:19:50.276Z,14.91
2018-06-03T06:20:54.869Z,15.02
2018-06-03T06:21:59.410Z,14.93
2018-06-03T06:23:03.949Z,15.07
2018-06-03T06:24:08.484Z,15.06
2018-06-03T06:25:13.174Z,15.04
2018-06-03T06:26:18.089Z,15.19
2018-06-03T06:27:22.615Z,15.16
2018-06-03T06:28:27.220Z,15.27
2018-06-03T06:29:31.778Z,15.40
2018-06-03T06:30:36.993Z,15.06
2018-06-03T06:31:41.597Z,15.00
2018-06-03T06:32:46.675Z,14.96
2018-06-03T06:33:51.370Z,15.09
2018-06-03T06:34:56.110Z,15.25
2018-06-03T06:36:00.804Z,15.44
2018-06-03T06:37:05.496Z,15.37
2018-06-03T06:38:10.176Z,15.48
2018-06-03T06:39:15.753Z,15.57
2018-06-03T06:40:20.444Z,15.54
2018-06-03T06:41:24.997Z,15.54
2018-06-03T06:42:29.544Z,15.53
2018-06-03T06:43:34.251Z,15.50
2018-06-03T06:44:38.987Z,15.72
2018-06-03T06:45:44.209Z,15.77
2018-06-03T06:46:48.857Z,15.92
2018-06-03T06:47:53.539Z,15.97
2018-06-03T06:48:58.233Z,15.88
2018-06-03T06:50:03.042Z,16.12
2018-06-03T06:51:07.620Z,16.49
2018-06-03T06:52:12.514Z,16.60
2018-06-03T06:53:17.048Z,16.67
2018-06-03T06:54:21.650Z,16.91
2018-06-03T06:55:26.243Z,16.85
2018-06-03T06:56:30.831Z,16.92
2018-06-03T06:57:35.365Z,16.62
2018-06-03T06:58:40.397Z,16.49
2018-06-03T06:59:44.920Z,16.76
2018-06-03T07:00:49.498Z,17.03
2018-06-03T07:01:54.036Z,17.18
2018-06-03T07:02:58.587Z,17.36
2018-06-03T07:04:03.788Z,17.11
2018-06-03T07:05:08.709Z,17.09
2018-06-03T07:06:13.281Z,16.97
2018-06-03T07:07:18.486Z,17.16
2018-06-03T07:08:23.096Z,17.24
2018-06-03T07:09:27.673Z,16.96
2018-06-03T07:10:32.318Z,17.16
2018-06-03T07:11:37.236Z,17.36
2018-06-03T07:12:41.785Z,17.46
2018-06-03T07:13:46.365Z,17.70
2018-06-03T07:14:50.918Z,17.97
2018-06-03T07:15:55.439Z,17.93
2018-06-03T07:17:00.038Z,18.01
2018-06-03T07:18:05.251Z,17.83
2018-06-03T07:19:09.930Z,17.50
2018-06-03T07:20:14.627Z,17.11
2018-06-03T07:21:19.309Z,17.39
2018-06-03T07:22:24.028Z,17.82
2018-06-03T07:23:28.725Z,17.99
2018-06-03T07:24:33.500Z,18.08
2018-06-03T07:25:38.159Z,17.95
2018-06-03T07:26:43.011Z,18.16
2018-06-03T07:27:47.754Z,18.45
2018-06-03T07:28:52.319Z,18.14
2018-06-03T07:29:57.224Z,17.86
2018-06-03T07:31:01.759Z,17.61
2018-06-03T07:32:06.348Z,17.45
2018-06-03T07:33:10.911Z,17.53
2018-06-03T07:34:15.534Z,17.52
2018-06-03T07:35:20.125Z,17.82
2018-06-03T07:36:25.102Z,17.76
2018-06-03T07:37:29.675Z,18.05
2018-06-03T07:38:34.246Z,18.57
2018-06-03T07:39:38.844Z,19.02
2018-06-03T07:40:43.395Z,18.89
2018-06-03T07:41:48.074Z,18.88
2018-06-03T07:42:52.719Z,18.97
2018-06-03T07:43:57.350Z,19.10
2018-06-03T07:45:02.058Z,19.18
2018-06-03T07:46:06.806Z,18.89
2018-06-03T07:47:11.457Z,19.01
2018-06-03T07:48:16.513Z,18.35
2018-06-03T07:49:21.265Z,18.73
2018-06-03T07:50:26.016Z,18.86
2018-06-03T07:51:30.758Z,18.80
2018-06-03T07:52:35.557Z,18.67
2018-06-03T07:53:40.290Z,18.56
2018-06-03T07:54:46.328Z,18.48
2018-06-03T07:55:51.031Z,18.81
2018-06-03T07:56:55.741Z,18.86
2018-06-03T07:58:00.400Z,18.80
2018-06-03T07:59:05.096Z,18.84
2018-06-03T08:00:09.809Z,18.85
2018-06-03T08:01:14.899Z,18.88
2018-06-03T08:02:19.652Z,19.09
2018-06-03T08:03:24.333Z,19.25
2018-06-03T08:04:29.004Z,19.27
2018-06-03T08:05:33.681Z,19.19
2018-06-03T08:06:38.499Z,18.94
2018-06-03T08:07:43.610Z,19.17
2018-06-03T08:08:49.400Z,19.43
2018-06-03T08:09:54.120Z,19.44
2018-06-03T08:10:58.739Z,19.61
2018-06-03T08:12:03.257Z,20.22
2018-06-03T08:13:07.779Z,20.59
2018-06-03T08:14:12.834Z,20.80
2018-06-03T08:15:17.420Z,20.75
2018-06-03T08:16:22.095Z,20.32
2018-06-03T08:17:26.660Z,19.92
2018-06-03T08:18:31.224Z,20.22
2018-06-03T08:19:35.840Z,20.07
2018-06-03T08:20:40.745Z,20.17
2018-06-03T08:21:45.324Z,20.17
2018-06-03T08:22:49.990Z,19.96
2018-06-03T08:23:54.632Z,19.95
2018-06-03T08:24:59.234Z,19.85
2018-06-03T08:26:03.791Z,20.13
2018-06-03T08:27:09.031Z,20.28
2018-06-03T08:28:13.701Z,20.26
2018-06-03T08:29:18.298Z,20.01
2018-06-03T08:30:22.917Z,20.28
2018-06-03T08:31:28.016Z,20.73
2018-06-03T08:32:32.639Z,21.03
2018-06-03T08:33:37.639Z,20.76
2018-06-03T08:34:42.219Z,20.54
2018-06-03T08:35:46.812Z,20.49
2018-06-03T08:36:51.433Z,20.24
2018-06-03T08:37:56.097Z,20.48
2018-06-03T08:39:00.806Z,21.01
2018-06-03T08:40:05.822Z,21.69
2018-06-03T08:41:10.570Z,21.54
2018-06-03T08:42:15.262Z,21.61
2018-06-03T08:43:20.032Z,21.16
2018-06-03T08:44:24.739Z,20.96
2018-06-03T08:45:29.440Z,21.14
2018-06-03T08:46:34.450Z,21.10
2018-06-03T08:47:39.164Z,21.46
2018-06-03T08:48:43.905Z,21.44
2018-06-03T08:49:48.675Z,21.56
2018-06-03T08:50:53.448Z,20.66
2018-06-03T08:51:58.150Z,20.95
2018-06-03T08:53:03.199Z,21.51
2018-06-03T08:54:08.078Z,21.59
2018-06-03T08:55:12.839Z,21.61
2018-06-03T08:56:17.508Z,21.77
2018-06-03T08:57:22.224Z,21.87
2018-06-03T08:58:26.998Z,21.88
2018-06-03T08:59:32.320Z,21.69
2018-06-03T09:00:37.035Z,21.42
2018-06-03T09:01:41.777Z,21.49
2018-06-03T09:02:47.194Z,21.34
2018-06-03T09:03:51.949Z,21.52
2018-06-03T09:04:57.009Z,21.73
2018-06-03T09:06:02.073Z,21.91
2018-06-03T09:07:06.875Z,21.99
2018-06-03T09:08:11.680Z,21.75
2018-06-03T09:09:16.462Z,21.63
2018-06-03T09:10:21.196Z,21.51
2018-06-03T09:11:25.917Z,21.21
2018-06-03T09:12:30.989Z,20.98
2018-06-03T09:13:35.689Z,21.12
2018-06-03T09:14:40.448Z,21.15
2018-06-03T09:15:45.173Z,21.67
2018-06-03T09:16:50.028Z,21.82
2018-06-03T09:17:54.768Z,22.00
2018-06-03T09:19:00.049Z,22.14
2018-06-03T09:20:04.737Z,22.18
2018-06-03T09:21:09.455Z,22.57
2018-06-03T09:22:14.136Z,22.82
2018-06-03T09:23:18.837Z,22.84
2018-06-03T09:24:23.583Z,22.61
2018-06-03T09:25:28.858Z,22.51
2018-06-03T09:26:33.553Z,22.73
2018-06-03T09:27:38.245Z,22.89
2018-06-03T09:28:43.555Z,22.93
2018-06-03T09:29:48.501Z,23.01
2018-06-03T09:30:57.281Z,23.37
2018-06-03T09:32:01.998Z,23.33
2018-06-03T09:33:06.699Z,22.88
2018-06-03T09:34:11.433Z,23.00
2018-06-03T09:35:16.189Z,23.22
2018-06-03T09:36:20.920Z,23.40
2018-06-03T09:37:25.678Z,22.86
2018-06-03T09:38:30.862Z,23.16
2018-06-03T09:39:35.496Z,22.85
2018-06-03T09:40:41.027Z,22.67
2018-06-03T09:41:45.647Z,22.51
2018-06-03T09:42:50.633Z,23.22
2018-06-03T09:43:55.288Z,23.63
2018-06-03T09:45:00.011Z,23.91
2018-06-03T09:46:04.802Z,24.06
2018-06-03T09:47:09.462Z,23.87
2018-06-03T09:48:14.188Z,23.75
2018-06-03T09:49:19.222Z,23.57
2018-06-03T09:50:23.785Z,22.44
2018-06-03T09:51:28.445Z,22.54
2018-06-03T09:52:33.042Z,22.34
2018-06-03T09:53:37.575Z,22.34
2018-06-03T09:54:42.339Z,22.51
2018-06-03T09:55:47.038Z,22.78
2018-06-03T09:56:51.728Z,22.96
2018-06-03T09:57:56.385Z,22.68
2018-06-03T09:59:01.409Z,22.81
2018-06-03T10:00:06.151Z,23.03
2018-06-03T10:01:11.293Z,22.97
2018-06-03T10:02:15.989Z,22.66
2018-06-03T10:03:20.734Z,22.89
2018-06-03T10:04:25.852Z,22.91
2018-06-03T10:05:31.018Z,22.34
2018-06-03T10:06:35.996Z,22.36
2018-06-03T10:07:41.186Z,22.53
2018-06-03T10:08:45.871Z,22.44
2018-06-03T10:09:50.590Z,22.79
2018-06-03T10:10:56.025Z,22.81
2018-06-03T10:12:00.975Z,22.78
2018-06-03T10:13:05.729Z,22.74
2018-06-03T10:14:10.925Z,22.68
2018-06-03T10:15:15.620Z,22.42
2018-06-03T10:16:20.218Z,22.37
2018-06-03T10:17:24.908Z,22.44
2018-06-03T10:18:29.568Z,22.22
2018-06-03T10:19:34.155Z,22.45
2018-06-03T10:20:38.821Z,22.33
2018-06-03T10:21:43.447Z,22.25
2018-06-03T10:22:48.019Z,22.26
2018-06-03T10:23:52.689Z,22.11
2018-06-03T10:24:57.244Z,22.21
2018-06-03T10:26:01.787Z,22.45
2018-06-03T10:27:07.914Z,22.71
2018-06-03T10:28:12.539Z,22.90
2018-06-03T10:29:17.254Z,23.06
2018-06-03T10:30:21.934Z,23.20
2018-06-03T10:31:26.546Z,23.15
2018-06-03T10:32:31.221Z,23.18
2018-06-03T10:33:36.166Z,22.97
2018-06-03T10:34:40.828Z,23.04
2018-06-03T10:35:45.406Z,23.40
2018-06-03T10:36:50.035Z,23.57
2018-06-03T10:37:54.613Z,23.62
2018-06-03T10:38:59.239Z,24.07
2018-06-03T10:40:04.273Z,24.39
2018-06-03T10:41:08.843Z,24.79
2018-06-03T10:42:13.391Z,24.96
2018-06-03T10:43:17.943Z,24.64
2018-06-03T10:44:22.679Z,24.18
2018-06-03T10:45:27.384Z,23.70
2018-06-03T10:46:32.434Z,23.01
2018-06-03T10:47:37.134Z,22.99
2018-06-03T10:48:41.814Z,22.84
2018-06-03T10:49:46.475Z,22.82
2018-06-03T10:50:51.172Z,22.93
2018-06-03T10:51:55.891Z,22.85
2018-06-03T10:53:00.991Z,22.80
2018-06-03T10:54:05.843Z,22.71
2018-06-03T10:55:10.549Z,22.43
2018-06-03T10:56:15.293Z,22.16
2018-06-03T10:57:20.222Z,21.98
2018-06-03T10:58:24.906Z,22.29
2018-06-03T10:59:30.737Z,21.95
2018-06-03T11:00:35.492Z,22.14
2018-06-03T11:01:40.652Z,22.43
2018-06-03T11:02:45.335Z,22.51
2018-06-03T11:03:50.013Z,22.80
2018-06-03T11:04:54.783Z,22.48
2018-06-03T11:05:59.883Z,22.23
2018-06-03T11:07:05.205Z,22.30
2018-06-03T11:08:09.952Z,22.66
2018-06-03T11:09:14.678Z,23.30
2018-06-03T11:10:19.460Z,23.56
2018-06-03T11:11:24.327Z,23.67
2018-06-03T11:12:29.387Z,23.80
2018-06-03T11:13:34.157Z,23.95
2018-06-03T11:14:38.847Z,23.77
2018-06-03T11:15:43.566Z,23.81
2018-06-03T11:16:48.229Z,24.21
2018-06-03T11:17:52.915Z,24.34
2018-06-03T11:18:58.095Z,24.39
2018-06-03T11:20:02.792Z,24.63
2018-06-03T11:21:07.475Z,24.83
2018-06-03T11:22:12.215Z,24.82
2018-06-03T11:23:16.945Z,24.92
2018-06-03T11:24:21.707Z,25.01
2018-06-03T11:25:27.825Z,25.07
2018-06-03T11:26:32.547Z,25.21
2018-06-03T11:27:37.211Z,25.27
2018-06-03T11:28:41.914Z,25.19
2018-06-03T11:29:46.632Z,25.22
2018-06-03T11:30:51.418Z,25.13
2018-06-03T11:31:56.524Z,25.22
2018-06-03T11:33:01.230Z,25.22
2018-06-03T11:34:05.965Z,25.21
2018-06-03T11:35:10.667Z,25.25
2018-06-03T11:36:15.348Z,25.30
2018-06-03T11:37:20.067Z,25.23
2018-06-03T11:38:25.160Z,25.12
2018-06-03T11:39:29.805Z,25.18
2018-06-03T11:40:34.372Z,25.49
2018-06-03T11:41:38.934Z,25.15
2018-06-03T11:42:43.541Z,25.41
2018-06-03T11:43:48.224Z,25.79
2018-06-03T11:44:53.658Z,25.82
2018-06-03T11:45:58.281Z,25.82
2018-06-03T11:47:03.910Z,26.03
2018-06-03T11:48:08.535Z,26.24
2018-06-03T11:49:13.108Z,26.38
2018-06-03T11:50:17.684Z,26.60
2018-06-03T11:51:22.807Z,26.98
2018-06-03T11:52:27.619Z,26.91
2018-06-03T11:53:32.205Z,26.77
2018-06-03T11:54:36.858Z,26.61
2018-06-03T11:55:41.439Z,26.23
2018-06-03T11:56:51.622Z,26.27
2018-06-03T11:58:04.405Z,26.56
2018-06-03T11:59:13.059Z,26.58
2018-06-03T12:00:17.828Z,26.48
2018-06-03T12:01:22.856Z,26.23
2018-06-03T12:02:27.545Z,26.50
2018-06-03T12:03:32.754Z,26.37
2018-06-03T12:04:37.446Z,25.30
2018-06-03T12:05:42.234Z,25.12
2018-06-03T12:06:46.818Z,25.33
2018-06-03T12:07:51.426Z,26.01
2018-06-03T12:08:56.020Z,26.16
2018-06-03T12:10:00.985Z,24.98
2018-06-03T12:11:05.849Z,24.51
2018-06-03T12:12:10.501Z,23.47
2018-06-03T12:13:15.059Z,23.49
2018-06-03T12:14:19.757Z,23.87
2018-06-03T12:15:24.478Z,23.97
2018-06-03T12:16:29.490Z,24.54
2018-06-03T12:17:34.045Z,24.99
2018-06-03T12:18:38.838Z,24.48
2018-06-03T12:19:43.547Z,24.56
2018-06-03T12:20:48.306Z,24.91
2018-06-03T12:21:53.032Z,25.10
2018-06-03T12:22:58.144Z,25.26
2018-06-03T12:24:02.814Z,25.41
2018-06-03T12:25:07.534Z,25.66
2018-06-03T12:26:12.175Z,25.30
2018-06-03T12:27:16.889Z,25.21
2018-06-03T12:28:21.764Z,25.82
2018-06-03T12:29:26.430Z,25.86
2018-06-03T12:30:31.116Z,26.00
2018-06-03T12:31:35.784Z,26.03
2018-06-03T12:32:40.485Z,26.02
2018-06-03T12:33:45.196Z,25.97
2018-06-03T12:34:50.379Z,26.24
2018-06-03T12:35:55.241Z,25.94
2018-06-03T12:36:59.854Z,26.00
2018-06-03T12:38:04.433Z,26.24
2018-06-03T12:39:09.706Z,26.27
2018-06-03T12:40:14.383Z,26.60
2018-06-03T12:41:19.378Z,26.81
2018-06-03T12:42:23.945Z,26.89
2018-06-03T12:43:28.597Z,26.27
2018-06-03T12:44:33.297Z,26.27
2018-06-03T12:45:39.584Z,26.00
2018-06-03T12:46:44.968Z,25.91
2018-06-03T12:47:49.933Z,24.87
2018-06-03T12:48:54.573Z,23.90
2018-06-03T12:50:00.922Z,24.39
2018-06-03T12:51:05.838Z,24.73
2018-06-03T12:52:11.404Z,25.21
2018-06-03T12:53:17.558Z,25.37
2018-06-03T12:54:22.201Z,25.70
2018-06-03T12:55:26.818Z,25.85
2018-06-03T12:56:31.398Z,25.28
2018-06-03T12:57:35.952Z,25.59
2018-06-03T12:58:40.628Z,26.02
2018-06-03T12:59:45.759Z,26.13
2018-06-03T13:00:50.495Z,26.33
2018-06-03T13:01:55.080Z,26.41
2018-06-03T13:02:59.756Z,26.62
2018-06-03T13:04:40.327Z,25.63
2018-06-03T13:05:45.070Z,25.73
2018-06-03T13:06:50.066Z,25.60
2018-06-03T13:07:54.739Z,25.12
2018-06-03T13:08:59.374Z,25.25
2018-06-03T13:10:04.252Z,25.80
2018-06-03T13:11:08.884Z,25.73
2018-06-03T13:12:13.648Z,26.15
2018-06-03T13:13:18.553Z,26.80
2018-06-03T13:14:23.206Z,26.79
2018-06-03T13:15:27.826Z,27.00
2018-06-03T13:16:32.580Z,26.90
2018-06-03T13:17:37.175Z,26.49
2018-06-03T13:18:41.764Z,26.09
2018-06-03T13:19:46.811Z,25.91
2018-06-03T13:20:51.447Z,25.97
2018-06-03T13:21:56.038Z,25.91
2018-06-03T13:23:00.617Z,25.77
2018-06-03T13:24:05.867Z,25.62
2018-06-03T13:25:10.488Z,25.55
2018-06-03T13:26:15.503Z,25.41
2018-06-03T13:27:20.101Z,25.49
2018-06-03T13:28:24.681Z,25.36
2018-06-03T13:29:30.249Z,25.35
2018-06-03T13:30:34.987Z,25.04
2018-06-03T13:31:39.601Z,24.92
2018-06-03T13:32:44.715Z,24.96
2018-06-03T13:33:49.967Z,24.84
2018-06-03T13:34:54.484Z,24.71
2018-06-03T13:35:59.177Z,24.81
2018-06-03T13:37:03.817Z,24.76
2018-06-03T13:38:08.389Z,24.93
2018-06-03T13:39:13.378Z,24.91
2018-06-03T13:40:18.022Z,24.75
2018-06-03T13:41:22.635Z,24.62
2018-06-03T13:42:27.217Z,24.78
2018-06-03T13:43:33.087Z,24.89
2018-06-03T13:44:37.715Z,24.76
2018-06-03T13:45:42.670Z,24.78
2018-06-03T13:46:47.367Z,24.92
2018-06-03T13:47:52.026Z,25.14
2018-06-03T13:48:56.695Z,25.32
2018-06-03T13:50:01.395Z,25.30
2018-06-03T13:51:06.336Z,25.41
2018-06-03T13:52:10.942Z,25.45
2018-06-03T13:53:15.556Z,25.37
2018-06-03T13:54:20.212Z,25.15
2018-06-03T13:55:24.884Z,25.57